Pagrindinis puslapis
METAR-TAF:

METAR-TAF

Oro uostai :

Dalaman, Turkija

platuma: 36-42N, ilguma: 028-47E, Aukštis: 7 m

Dabartinis oras

Ataskaita buvo paskelbta 26 minutes, ne 02:50 UTC
Vėjas 5 kt iš Šiaurės/Šiaurės Rytų, svyruoja nuo Šiaurės ir Rytų
Temperatūra 9°C
Drėgmė 81%
Slėgis 1014 hPa
Matomumas 10 km arba daugiau
Išsisklaidę debesys ne aukštis 3000 ft

METAR: LTBS 010250Z 02005KT 360V080 9999 SCT030 09/06 Q1014 NOSIG RMK RWY19 33004KT 300V010 3CU030

Laikas: 06:16 (03:16 UTC)

Prognozė

Ataskaita buvo paskelbta 4 valandos ir 36 minutes, ne 22:40 UTC
Prognozė galioja nuo 01 metu 00 UTC su 01 metu 24 UTC
Vėjas 9 kt iš Šiaurės/Šiaurės Vakarų
Matomumas 10 km arba daugiau
Išsisklaidę debesys ne aukštis 2500 ft
Tapsmas
nuo 01 metu 04 UTC su 01 metu 06 UTC
Matomumas 10 km arba daugiau
nėra debesų žemiau 1500 m ir nėra kamuolinių lietaus debesų

TAF: LTBS 302240Z 0100/0124 34009KT 9999 SCT025 BECMG 0104/0106 CAVOK

Orai ataskaitas ir orų prognozės (METAR, TAF).

turimą stotys yra geltonos ir raudonos taškus žemėlapyje.

Perkelti pele per norėdami pamatyti stoties vardą.

Tada spustelėkite, norėdami matyti oro stebėjimo ir prognozės.

Norėdami pakeisti žemėlapį: spustelėkite ant žalios mygtukų su juodo kryžiaus žemyn,; žalią mygtuką su brūkšneliu, jei norite nutolinti; arba žalių rodyklių gretimoms žemėlapius.


METAR-TAF: